Time;durP1;ratioP1;P1;durP2;ratioP2;P2;SDS_P1;SDS_P2;PMS_P1;PMS_P2;Temp;Humidity;BMP_temperature;BMP_pressure;BME280_temperature;BME280_humidity;BME280_pressure;Samples;Min_cycle;Max_cycle;Signal;HPM_P1;HPM_P2
2023/12/06 00:01:22;;;;;;;;;;;;;;;6.96;71.88;99527.34;5053145;28;19916;-76
2023/12/06 00:03:47;;;;;;;;;;;;;;;6.92;71.75;99526.81;5051970;28;19913;-76
2023/12/06 00:06:12;;;;;;;;;;;;;;;6.85;72.75;99522.34;5052878;28;19921;-77
2023/12/06 00:08:38;;;;;;;;;;;;;;;6.81;72.50;99521.84;5053070;28;20309;-77
2023/12/06 00:11:03;;;;;;;;;;;;;;;6.78;73.14;99518.69;5053154;28;20925;-77
2023/12/06 00:13:28;;;;;;;;;;;;;;;6.81;73.08;99519.22;5053162;28;19917;-76
2023/12/06 00:15:54;;;;;;;;;;;;;;;6.83;73.07;99513.81;5053165;28;19963;-77
2023/12/06 00:18:19;;;;;;;;;;;;;;;6.85;72.68;99511.84;5051739;28;19999;-77
2023/12/06 00:20:45;;;;;;;;;;;;;;;6.87;72.64;99502.03;5051592;28;19917;-76
2023/12/06 00:23:10;;;;;;;;;;;;;;;6.87;72.84;99500.22;5052921;28;20003;-76
2023/12/06 00:25:35;;;;;;;;;;;;;;;6.86;72.85;99497.75;5052873;28;19982;-77
2023/12/06 00:28:03;;;;;;;;;;;;;;;6.87;72.57;99505.47;5052505;28;20390;-78
2023/12/06 00:30:29;;;;;;;;;;;;;;;6.81;73.16;99508.72;5052576;28;20481;-78
2023/12/06 00:32:54;;;;;;;;;;;;;;;6.84;72.89;99510.22;5052567;28;19944;-77
2023/12/06 00:35:20;;;;;;;;;;;;;;;6.85;72.96;99499.56;5052562;28;20459;-77
2023/12/06 00:37:45;;;;;;;;;;;;;;;6.87;73.47;99489.72;5052515;28;19916;-77
2023/12/06 00:40:11;;;;;;;;;;;;;;;6.89;72.73;99492.19;5051145;28;19913;-76
2023/12/06 00:42:36;;;;;;;;;;;;;;;6.90;72.70;99494.66;5052591;28;19913;-76
2023/12/06 00:45:01;;;;;;;;;;;;;;;6.92;72.68;99487.44;5052550;28;19951;-77
2023/12/06 00:47:28;;;;;;;;;;;;;;;6.93;72.56;99486.47;5052550;28;19913;-78
2023/12/06 00:49:53;;;;;;;;;;;;;;;6.86;72.31;99488.06;5052253;28;20378;-77
2023/12/06 00:52:18;;;;;;;;;;;;;;;6.88;72.96;99493.16;5052227;28;19920;-77
2023/12/06 00:54:44;;;;;;;;;;;;;;;6.87;73.14;99492.34;5067232;28;19917;-77
2023/12/06 00:57:09;;;;;;;;;;;;;;;6.87;73.19;99486.28;5067554;28;19912;-77
2023/12/06 00:59:34;;;;;;;;;;;;;;;6.89;73.28;99476.44;5052229;28;19983;-76
2023/12/06 01:02:00;;;;;;;;;;;;;;;6.92;73.07;99476.97;5052191;28;19913;-76
2023/12/06 01:04:25;;;;;;;;;;;;;;;6.93;72.32;99470.72;5052139;28;19939;-77
2023/12/06 01:06:50;;;;;;;;;;;;;;;6.91;72.63;99475.31;5050524;28;20303;-77
2023/12/06 01:09:15;;;;;;;;;;;;;;;6.91;72.61;99471.88;5051961;28;19912;-77
2023/12/06 01:11:41;;;;;;;;;;;;;;;6.84;73.01;99468.22;5052094;28;19970;-77
2023/12/06 01:14:06;;;;;;;;;;;;;;;6.73;73.55;99471.09;5052103;28;19959;-78
2023/12/06 01:16:31;;;;;;;;;;;;;;;6.68;73.79;99466.28;5051896;28;19913;-78
2023/12/06 01:18:57;;;;;;;;;;;;;;;6.66;73.46;99466.44;5051033;28;19951;-77
2023/12/06 01:21:22;;;;;;;;;;;;;;;6.71;73.54;99458.16;5051921;28;19917;-77
2023/12/06 01:23:47;;;;;;;;;;;;;;;6.73;73.71;99460.63;5051827;28;19967;-78
2023/12/06 01:26:13;;;;;;;;;;;;;;;6.75;73.54;99459.47;5051836;28;20287;-78
2023/12/06 01:28:38;;;;;;;;;;;;;;;6.78;73.32;99455.72;5052060;28;19913;-77
2023/12/06 01:31:03;;;;;;;;;;;;;;;6.82;73.51;99441.31;5051808;28;19943;-77
2023/12/06 01:33:29;;;;;;;;;;;;;;;6.84;73.67;99434.09;5051787;28;19970;-77
2023/12/06 01:35:54;;;;;;;;;;;;;;;6.87;73.90;99431.16;5051928;28;19948;-77
2023/12/06 01:38:19;;;;;;;;;;;;;;;6.88;73.81;99438.88;5051798;28;19974;-77
2023/12/06 01:40:45;;;;;;;;;;;;;;;6.91;73.24;99437.75;5051636;28;19978;-78
2023/12/06 01:43:10;;;;;;;;;;;;;;;6.88;73.65;99438.88;5050574;28;19913;-76
2023/12/06 01:45:36;;;;;;;;;;;;;;;6.83;73.29;99433.28;5051858;28;19935;-77
2023/12/06 01:48:02;;;;;;;;;;;;;;;6.81;73.45;99431.78;5051806;28;20006;-77
2023/12/06 01:50:27;;;;;;;;;;;;;;;6.83;73.43;99428.03;5052144;28;19967;-78
2023/12/06 01:52:56;;;;;;;;;;;;;;;6.87;73.48;99426.75;5051791;28;19916;-77
2023/12/06 01:55:21;;;;;;;;;;;;;;;6.87;73.16;99424.13;5051907;28;19978;-78
2023/12/06 01:57:47;;;;;;;;;;;;;;;6.87;73.83;99421.50;5051532;28;19916;-77
2023/12/06 02:00:12;;;;;;;;;;;;;;;6.90;72.83;99418.56;5051550;28;19913;-77
2023/12/06 02:02:38;;;;;;;;;;;;;;;6.87;73.25;99424.13;5051404;28;19920;-77
2023/12/06 02:05:03;;;;;;;;;;;;;;;6.88;73.03;99420.50;5051294;28;19916;-77
2023/12/06 02:07:29;;;;;;;;;;;;;;;6.89;73.59;99418.72;5050151;28;19955;-77
2023/12/06 02:09:55;;;;;;;;;;;;;;;6.89;72.97;99409.03;5051506;28;19935;-76
2023/12/06 02:12:20;;;;;;;;;;;;;;;6.90;73.36;99408.06;5051460;28;19912;-77
2023/12/06 02:14:46;;;;;;;;;;;;;;;6.92;73.63;99398.22;5051415;28;19921;-77
2023/12/06 02:17:12;;;;;;;;;;;;;;;6.95;73.63;99405.78;5051273;28;19999;-78
2023/12/06 02:19:38;;;;;;;;;;;;;;;6.97;73.33;99397.75;5051444;28;19912;-77
2023/12/06 02:22:03;;;;;;;;;;;;;;;6.98;73.10;99394.97;5051495;28;19913;-77
2023/12/06 02:24:29;;;;;;;;;;;;;;;6.95;73.39;99397.06;5050133;28;20424;-78
2023/12/06 02:26:55;;;;;;;;;;;;;;;6.97;73.34;99388.06;5049780;28;20287;-77
2023/12/06 02:29:22;;;;;;;;;;;;;;;6.99;72.50;99387.91;5052012;28;19966;-77
2023/12/06 02:31:48;;;;;;;;;;;;;;;6.99;72.56;99393.97;5054782;28;19913;-76
2023/12/06 02:34:16;;;;;;;;;;;;;;;7.01;72.80;99380.69;5054748;28;19983;-77
2023/12/06 02:36:42;;;;;;;;;;;;;;;6.98;73.03;99376.59;5053559;28;20313;-76
2023/12/06 02:39:09;;;;;;;;;;;;;;;6.99;72.80;99370.34;5054803;28;20000;-78
2023/12/06 02:41:34;;;;;;;;;;;;;;;6.99;73.11;99375.59;5055102;28;19959;-78
2023/12/06 02:43:59;;;;;;;;;;;;;;;7.01;72.95;99370.19;5070098;28;19955;-77
2023/12/06 02:46:25;;;;;;;;;;;;;;;6.94;73.47;99364.75;5055078;28;19948;-76
2023/12/06 02:48:51;;;;;;;;;;;;;;;6.85;74.22;99351.78;5054515;28;19913;-78
2023/12/06 02:51:16;;;;;;;;;;;;;;;6.87;72.81;99355.06;5070140;28;19995;-77
2023/12/06 02:53:42;;;;;;;;;;;;;;;6.79;74.29;99342.72;5054671;28;20388;-77
2023/12/06 02:56:07;;;;;;;;;;;;;;;6.78;74.13;99345.50;5053096;28;19924;-78
2023/12/06 02:58:33;;;;;;;;;;;;;;;6.81;74.16;99340.78;5054443;28;19913;-77
2023/12/06 03:00:58;;;;;;;;;;;;;;;6.87;73.85;99332.25;5054682;28;19963;-76
2023/12/06 03:03:23;;;;;;;;;;;;;;;6.88;73.78;99333.91;5054383;28;20364;-77
2023/12/06 03:05:49;;;;;;;;;;;;;;;6.91;72.95;99336.22;5054239;28;20382;-78
2023/12/06 03:08:14;;;;;;;;;;;;;;;6.92;73.40;99337.03;5054751;28;19967;-77
2023/12/06 03:10:40;;;;;;;;;;;;;;;6.93;73.83;99336.06;5069697;28;19941;-77
2023/12/06 03:13:05;;;;;;;;;;;;;;;6.92;74.20;99337.84;5054550;28;19966;-78
2023/12/06 03:15:30;;;;;;;;;;;;;;;6.97;73.59;99335.56;5053013;28;20378;-76
2023/12/06 03:17:55;;;;;;;;;;;;;;;7.00;73.94;99340.50;5054361;28;19916;-77
2023/12/06 03:20:21;;;;;;;;;;;;;;;7.01;74.09;99344.78;5054229;28;19920;-77
2023/12/06 03:22:46;;;;;;;;;;;;;;;6.95;74.44;99345.41;5054038;28;19913;-77
2023/12/06 03:25:12;;;;;;;;;;;;;;;6.92;74.12;99348.34;5053850;28;19920;-78
2023/12/06 03:27:37;;;;;;;;;;;;;;;6.91;74.73;99343.25;5053855;28;19912;-78
2023/12/06 03:30:03;;;;;;;;;;;;;;;6.87;74.82;99349.81;5053925;28;20390;-78
2023/12/06 03:32:28;;;;;;;;;;;;;;;6.88;74.44;99352.28;5054034;28;19913;-77
2023/12/06 03:34:53;;;;;;;;;;;;;;;6.92;73.87;99344.91;5053567;28;20000;-77
2023/12/06 03:37:19;;;;;;;;;;;;;;;6.82;75.09;99341.59;5053551;28;19959;-77
2023/12/06 03:39:44;;;;;;;;;;;;;;;6.79;74.44;99334.88;5053555;28;19913;-77
2023/12/06 03:42:09;;;;;;;;;;;;;;;6.82;74.70;99333.72;5053003;28;20294;-77
2023/12/06 03:44:35;;;;;;;;;;;;;;;6.85;74.04;99331.59;5053701;28;19917;-77
2023/12/06 03:47:00;;;;;;;;;;;;;;;6.91;74.16;99324.91;5053641;28;20678;-76
2023/12/06 03:49:25;;;;;;;;;;;;;;;6.95;73.67;99329.66;5052326;28;19920;-76
2023/12/06 03:51:51;;;;;;;;;;;;;;;7.00;73.71;99327.38;5053722;28;19920;-76
2023/12/06 03:54:16;;;;;;;;;;;;;;;7.04;73.58;99327.06;5054023;28;19967;-77
2023/12/06 03:56:41;;;;;;;;;;;;;;;7.07;73.68;99331.97;5053263;28;19947;-77
2023/12/06 03:59:07;;;;;;;;;;;;;;;7.07;73.64;99321.47;5053570;28;19913;-78
2023/12/06 04:01:32;;;;;;;;;;;;;;;7.08;73.80;99328.38;5053902;28;19916;-78
2023/12/06 04:03:58;;;;;;;;;;;;;;;7.09;73.42;99330.03;5053511;28;19912;-76
2023/12/06 04:06:23;;;;;;;;;;;;;;;7.12;73.85;99337.56;5053051;28;19964;-77
2023/12/06 04:08:48;;;;;;;;;;;;;;;7.08;73.84;99337.06;5053084;28;19948;-77
2023/12/06 04:11:14;;;;;;;;;;;;;;;7.07;73.19;99345.94;5053102;28;19971;-76
2023/12/06 04:13:39;;;;;;;;;;;;;;;7.08;73.43;99333.63;5051702;28;20023;-78
2023/12/06 04:16:04;;;;;;;;;;;;;;;7.08;73.59;99325.75;5053091;28;19916;-78
2023/12/06 04:18:30;;;;;;;;;;;;;;;7.10;73.25;99332.47;5052751;28;20370;-76
2023/12/06 04:20:55;;;;;;;;;;;;;;;7.10;73.03;99335.09;5052856;28;19912;-77
2023/12/06 04:23:20;;;;;;;;;;;;;;;7.09;73.74;99335.28;5053256;28;19913;-77
2023/12/06 04:25:47;;;;;;;;;;;;;;;7.12;73.42;99335.78;5052508;28;19913;-77
2023/12/06 04:28:12;;;;;;;;;;;;;;;7.14;74.19;99333.81;5052746;28;19955;-77
2023/12/06 04:30:37;;;;;;;;;;;;;;;7.13;73.94;99332.16;5052863;28;19948;-77
2023/12/06 04:33:03;;;;;;;;;;;;;;;7.15;73.00;99334.63;5052732;28;19999;-77
2023/12/06 04:35:28;;;;;;;;;;;;;;;7.15;73.16;99332.00;5052617;28;20407;-77
2023/12/06 04:37:53;;;;;;;;;;;;;;;7.15;73.08;99337.25;5052589;28;19913;-77
2023/12/06 04:40:19;;;;;;;;;;;;;;;7.07;73.49;99334.59;5053075;28;19913;-77
2023/12/06 04:42:44;;;;;;;;;;;;;;;7.06;73.49;99332.97;5052589;28;20393;-78
2023/12/06 04:45:10;;;;;;;;;;;;;;;7.07;73.58;99329.34;5052463;28;19919;-77
2023/12/06 04:47:35;;;;;;;;;;;;;;;7.08;73.63;99323.94;5067735;28;19917;-77
2023/12/06 04:50:00;;;;;;;;;;;;;;;7.08;73.51;99316.06;5052242;28;19916;-76
2023/12/06 04:52:26;;;;;;;;;;;;;;;7.10;73.31;99311.47;5052100;28;19970;-77
2023/12/06 04:54:51;;;;;;;;;;;;;;;7.11;73.53;99318.38;5051746;28;19916;-77
2023/12/06 04:57:17;;;;;;;;;;;;;;;7.14;73.49;99317.22;5052169;28;19920;-76
2023/12/06 04:59:42;;;;;;;;;;;;;;;7.17;73.33;99316.91;5052210;28;20401;-77
2023/12/06 05:02:08;;;;;;;;;;;;;;;7.17;72.97;99317.72;5052139;28;19913;-76
2023/12/06 05:04:33;;;;;;;;;;;;;;;7.15;73.54;99309.19;5052231;28;19913;-77
2023/12/06 05:06:58;;;;;;;;;;;;;;;7.09;73.89;99316.91;5051981;28;19920;-77
2023/12/06 05:09:24;;;;;;;;;;;;;;;7.08;73.81;99312.63;5067439;28;19913;-76
2023/12/06 05:11:49;;;;;;;;;;;;;;;7.11;74.42;99318.38;5051913;28;19913;-77
2023/12/06 05:14:14;;;;;;;;;;;;;;;7.15;73.62;99313.63;5051932;28;19916;-77
2023/12/06 05:16:40;;;;;;;;;;;;;;;7.11;73.98;99317.56;5051974;28;19913;-77
2023/12/06 05:19:06;;;;;;;;;;;;;;;7.14;73.86;99317.22;5067043;28;20394;-77
2023/12/06 05:21:31;;;;;;;;;;;;;;;7.14;73.73;99318.06;5051961;28;19999;-77
2023/12/06 05:23:57;;;;;;;;;;;;;;;7.16;73.93;99316.09;5052003;28;20069;-77
2023/12/06 05:26:24;;;;;;;;;;;;;;;7.17;73.50;99320.34;5051957;28;19920;-77
2023/12/06 05:28:49;;;;;;;;;;;;;;;7.17;73.52;99322.97;5051626;28;19913;-77
2023/12/06 05:31:15;;;;;;;;;;;;;;;7.19;73.17;99323.63;5051655;28;19909;-78
2023/12/06 05:33:40;;;;;;;;;;;;;;;7.23;73.28;99329.38;5051759;28;20320;-77
2023/12/06 05:36:07;;;;;;;;;;;;;;;7.26;73.73;99321.19;5051816;28;20373;-78
2023/12/06 05:38:32;;;;;;;;;;;;;;;7.27;73.29;99320.22;5051793;28;20309;-77
2023/12/06 05:40:57;;;;;;;;;;;;;;;7.28;73.16;99324.47;5052231;28;19913;-78
2023/12/06 05:43:23;;;;;;;;;;;;;;;7.26;73.53;99329.06;5051887;28;19904;-77
2023/12/06 05:45:48;;;;;;;;;;;;;;;7.23;74.17;99327.59;5051797;28;20019;-78
2023/12/06 05:48:13;;;;;;;;;;;;;;;7.23;73.96;99326.75;5050533;28;19925;-76
2023/12/06 05:50:39;;;;;;;;;;;;;;;7.23;74.07;99327.59;5051687;28;19917;-77
2023/12/06 05:53:05;;;;;;;;;;;;;;;7.25;73.95;99324.78;5051449;28;19916;-77
2023/12/06 05:55:30;;;;;;;;;;;;;;;7.25;74.07;99330.88;5051272;28;19913;-78
2023/12/06 05:57:55;;;;;;;;;;;;;;;7.23;73.86;99335.47;5051446;28;19920;-78
2023/12/06 06:00:21;;;;;;;;;;;;;;;7.23;73.33;99322.34;5051478;28;19920;-78
2023/12/06 06:02:46;;;;;;;;;;;;;;;7.26;74.02;99318.56;5051843;28;19919;-76
2023/12/06 06:05:11;;;;;;;;;;;;;;;7.26;73.74;99318.56;5053706;28;19917;-77
2023/12/06 06:07:37;;;;;;;;;;;;;;;7.25;74.13;99315.13;5054023;28;19913;-77
2023/12/06 06:10:03;;;;;;;;;;;;;;;7.18;73.52;99313.31;5055606;28;19970;-77
2023/12/06 06:12:28;;;;;;;;;;;;;;;7.07;74.20;99314.44;5055121;28;19920;-78
2023/12/06 06:14:54;;;;;;;;;;;;;;;7.07;75.10;99314.44;5053897;28;19917;-77
2023/12/06 06:17:22;;;;;;;;;;;;;;;7.12;74.90;99321.81;5077000;28;19970;-77
2023/12/06 06:19:48;;;;;;;;;;;;;;;7.15;74.50;99324.13;5075531;28;19916;-77
2023/12/06 06:22:13;;;;;;;;;;;;;;;7.12;74.57;99325.28;5074853;28;19919;-77
2023/12/06 06:24:39;;;;;;;;;;;;;;;7.15;73.64;99324.94;5075890;28;19924;-78
2023/12/06 06:27:04;;;;;;;;;;;;;;;7.14;75.06;99328.56;5082843;28;20309;-77
2023/12/06 06:29:29;;;;;;;;;;;;;;;7.17;74.60;99332.66;5084530;28;20399;-76
2023/12/06 06:31:55;;;;;;;;;;;;;;;7.19;74.29;99335.94;5093597;28;20477;-77
2023/12/06 06:34:20;;;;;;;;;;;;;;;7.19;74.59;99335.94;5093230;28;19928;-77
2023/12/06 06:36:45;;;;;;;;;;;;;;;7.21;73.70;99333.97;5077776;28;20317;-77
2023/12/06 06:39:12;;;;;;;;;;;;;;;7.18;73.78;99335.13;5074425;28;19919;-76
2023/12/06 06:41:38;;;;;;;;;;;;;;;7.11;74.82;99335.94;5073197;28;20003;-77
2023/12/06 06:44:04;;;;;;;;;;;;;;;7.10;75.03;99324.59;5087633;28;20003;-77
2023/12/06 06:46:29;;;;;;;;;;;;;;;7.11;74.06;99328.88;5095002;28;20373;-78
2023/12/06 06:48:54;;;;;;;;;;;;;;;7.13;74.18;99320.84;5094683;28;20369;-77
2023/12/06 06:51:20;;;;;;;;;;;;;;;7.11;74.92;99328.88;5087081;28;20374;-77
2023/12/06 06:53:45;;;;;;;;;;;;;;;7.17;74.25;99322.97;5075499;28;19923;-77
2023/12/06 06:56:10;;;;;;;;;;;;;;;7.22;74.09;99312.81;5085343;28;19916;-76
2023/12/06 06:58:36;;;;;;;;;;;;;;;7.22;74.57;99306.75;5074333;28;19962;-77
2023/12/06 07:01:01;;;;;;;;;;;;;;;7.22;74.38;99309.38;5074311;28;19999;-77
2023/12/06 07:03:26;;;;;;;;;;;;;;;7.23;74.55;99305.75;5076009;28;20031;-76
2023/12/06 07:05:52;;;;;;;;;;;;;;;7.26;73.47;99311.50;5077735;28;19927;-77
2023/12/06 07:08:17;;;;;;;;;;;;;;;7.25;74.20;99319.53;5074243;28;19920;-77
2023/12/06 07:10:47;;;;;;;;;;;;;;;7.22;74.59;99315.44;5074133;28;19912;-77
2023/12/06 07:13:13;;;;;;;;;;;;;;;7.22;74.55;99312.00;5074020;28;19912;-78
2023/12/06 07:15:38;;;;;;;;;;;;;;;7.24;74.07;99312.66;5072834;28;19965;-77
2023/12/06 07:18:03;;;;;;;;;;;;;;;7.29;74.56;99313.81;5072543;28;19908;-77
2023/12/06 07:20:29;;;;;;;;;;;;;;;7.30;73.86;99312.00;5076107;28;19991;-77
2023/12/06 07:22:55;;;;;;;;;;;;;;;7.28;74.39;99320.03;5089101;28;19916;-77
2023/12/06 07:25:20;;;;;;;;;;;;;;;7.25;74.91;99320.38;5074112;28;19916;-78
2023/12/06 07:27:45;;;;;;;;;;;;;;;7.29;74.33;99323.50;5083358;28;20003;-78
2023/12/06 07:30:16;;;;;;;;;;;;;;;7.27;73.86;99325.47;5055786;28;20008;-77
2023/12/06 07:32:42;;;;;;;;;;;;;;;7.27;74.73;99322.81;5075577;28;19942;-76
2023/12/06 07:35:07;;;;;;;;;;;;;;;7.27;73.96;99321.03;5082331;28;19921;-77
2023/12/06 07:37:33;;;;;;;;;;;;;;;7.31;73.86;99319.72;5092220;28;20416;-76
2023/12/06 07:39:58;;;;;;;;;;;;;;;7.29;74.66;99323.50;5074385;28;20000;-76
2023/12/06 07:42:23;;;;;;;;;;;;;;;7.31;74.02;99324.16;5073522;28;19922;-77
2023/12/06 07:44:48;;;;;;;;;;;;;;;7.32;74.95;99320.53;5077785;28;19916;-77
2023/12/06 07:47:16;;;;;;;;;;;;;;;7.35;75.30;99320.22;5081473;28;19952;-78
2023/12/06 07:49:41;;;;;;;;;;;;;;;7.35;75.84;99312.34;5073449;28;19912;-77
2023/12/06 07:52:07;;;;;;;;;;;;;;;7.36;74.79;99315.78;5092295;28;19916;-77
2023/12/06 07:54:33;;;;;;;;;;;;;;;7.39;75.11;99318.91;5093436;28;19916;-76
2023/12/06 07:56:58;;;;;;;;;;;;;;;7.41;75.51;99324.81;5093415;28;19912;-78
2023/12/06 07:59:23;;;;;;;;;;;;;;;7.40;74.57;99320.53;5092924;28;19982;-77
2023/12/06 08:01:48;;;;;;;;;;;;;;;7.39;74.99;99318.91;5090429;28;20391;-77
2023/12/06 08:04:15;;;;;;;;;;;;;;;7.42;74.46;99320.38;5074605;28;20419;-76
2023/12/06 08:06:41;;;;;;;;;;;;;;;7.46;74.54;99321.72;5087487;28;19920;-77
2023/12/06 08:09:11;;;;;;;;;;;;;;;7.47;74.70;99324.19;5091704;28;19927;-77
2023/12/06 08:11:36;;;;;;;;;;;;;;;7.49;74.60;99322.22;5071768;28;19959;-77
2023/12/06 08:14:02;;;;;;;;;;;;;;;7.41;75.97;99316.13;5076210;28;19965;-76
2023/12/06 08:16:27;;;;;;;;;;;;;;;7.42;75.46;99317.75;5054595;28;19913;-77
2023/12/06 08:18:53;;;;;;;;;;;;;;;7.40;75.95;99317.91;5052619;28;20305;-77
2023/12/06 08:21:18;;;;;;;;;;;;;;;7.38;75.17;99312.00;5061127;28;19923;-76
2023/12/06 08:23:43;;;;;;;;;;;;;;;7.40;75.87;99317.09;5071071;28;19913;-76
2023/12/06 08:26:10;;;;;;;;;;;;;;;7.43;75.72;99315.00;5072288;28;19912;-77
2023/12/06 08:28:36;;;;;;;;;;;;;;;7.47;76.27;99321.56;5072233;28;19916;-77
2023/12/06 08:31:01;;;;;;;;;;;;;;;7.49;75.30;99316.97;5073471;28;19978;-77
2023/12/06 08:33:26;;;;;;;;;;;;;;;7.50;76.63;99305.47;5092630;28;19959;-77
2023/12/06 08:35:52;;;;;;;;;;;;;;;7.51;75.60;99301.88;5091014;28;19931;-76
2023/12/06 08:38:17;;;;;;;;;;;;;;;7.49;74.91;99303.84;5092557;28;19912;-77
2023/12/06 08:40:42;;;;;;;;;;;;;;;7.48;75.48;99307.44;5092608;28;20313;-77
2023/12/06 08:43:08;;;;;;;;;;;;;;;7.41;74.77;99310.84;5089198;28;20309;-77
2023/12/06 08:45:33;;;;;;;;;;;;;;;7.32;75.60;99305.59;5090739;28;20510;-77
2023/12/06 08:47:59;;;;;;;;;;;;;;;7.34;75.61;99301.00;5074055;28;19917;-77
2023/12/06 08:50:25;;;;;;;;;;;;;;;7.29;76.82;99300.69;5076962;28;19916;-76
2023/12/06 08:52:50;;;;;;;;;;;;;;;7.33;76.01;99302.00;5068688;28;20309;-77
2023/12/06 08:55:16;;;;;;;;;;;;;;;7.37;75.60;99307.75;5071404;28;19920;-78
2023/12/06 08:57:41;;;;;;;;;;;;;;;7.42;74.95;99294.13;5074962;28;19916;-77
2023/12/06 09:00:07;;;;;;;;;;;;;;;7.35;75.94;99304.44;5086523;28;19916;-77
2023/12/06 09:02:35;;;;;;;;;;;;;;;7.36;75.38;99297.41;5072933;28;19916;-77
2023/12/06 09:05:01;;;;;;;;;;;;;;;7.38;75.90;99292.81;5071370;28;19923;-76
2023/12/06 09:07:26;;;;;;;;;;;;;;;7.39;75.59;99294.44;5071304;28;19924;-77
2023/12/06 09:09:51;;;;;;;;;;;;;;;7.42;75.65;99289.69;5070680;28;20404;-76
2023/12/06 09:12:17;;;;;;;;;;;;;;;7.47;74.90;99297.91;5060659;28;19926;-78
2023/12/06 09:14:42;;;;;;;;;;;;;;;7.48;75.50;99286.44;5055274;28;19970;-77
2023/12/06 09:17:08;;;;;;;;;;;;;;;7.50;75.31;99284.47;5066290;28;20003;-77
2023/12/06 09:19:33;;;;;;;;;;;;;;;7.54;75.20;99287.56;5073054;28;19916;-77
2023/12/06 09:21:59;;;;;;;;;;;;;;;7.55;75.60;99278.72;5076058;28;19923;-77
2023/12/06 09:24:24;;;;;;;;;;;;;;;7.58;75.20;99284.47;5075446;28;19939;-76
2023/12/06 09:26:50;;;;;;;;;;;;;;;7.60;74.67;99266.72;5050524;28;20305;-77
2023/12/06 09:29:15;;;;;;;;;;;;;;;7.59;74.32;99280.84;5061416;28;19923;-77
2023/12/06 09:31:41;;;;;;;;;;;;;;;7.59;75.15;99275.59;5062183;28;19924;-76
2023/12/06 09:34:06;;;;;;;;;;;;;;;7.62;75.41;99277.88;5071750;28;19923;-76
2023/12/06 09:36:32;;;;;;;;;;;;;;;7.68;75.17;99279.03;5071512;28;19912;-77
2023/12/06 09:38:58;;;;;;;;;;;;;;;7.73;75.60;99270.66;5071229;28;19939;-77
2023/12/06 09:41:28;;;;;;;;;;;;;;;7.78;75.64;99261.28;5058400;28;19919;-77
2023/12/06 09:43:53;;;;;;;;;;;;;;;7.79;75.00;99259.47;5054862;28;19923;-77
2023/12/06 09:46:19;;;;;;;;;;;;;;;7.78;74.57;99256.03;5052479;28;19913;-77
2023/12/06 09:48:46;;;;;;;;;;;;;;;7.79;75.68;99247.16;5071622;28;19923;-77
2023/12/06 09:51:11;;;;;;;;;;;;;;;7.84;76.57;99231.69;5071429;28;19920;-77
2023/12/06 09:53:38;;;;;;;;;;;;;;;7.22;75.33;99129.00;5067484;28;19924;-78
2023/12/06 09:56:03;;;;;;;;;;;;;;;7.92;74.85;99217.72;5066079;28;19916;-78
2023/12/06 09:58:28;;;;;;;;;;;;;;;7.93;75.61;99219.34;5071243;28;19923;-77
2023/12/06 10:00:54;;;;;;;;;;;;;;;7.91;75.36;99211.63;5070048;28;20329;-78
2023/12/06 10:03:23;;;;;;;;;;;;;;;7.93;74.54;99204.41;5070396;28;19916;-76
2023/12/06 10:05:58;;;;;;;;;;;;;;;7.94;74.99;99207.84;5082586;28;20312;-77
2023/12/06 10:08:24;;;;;;;;;;;;;;;7.95;75.92;99207.69;5088294;28;20011;-77
2023/12/06 10:11:02;;;;;;;;;;;;;;;7.98;74.98;99196.00;5077594;28;20063;-78
2023/12/06 10:13:31;;;;;;;;;;;;;;;8.02;75.25;99186.78;5055161;28;19908;-78
2023/12/06 10:15:56;;;;;;;;;;;;;;;8.07;74.92;99183.66;5051829;28;19924;-79
2023/12/06 10:18:24;;;;;;;;;;;;;;;8.14;74.13;99180.16;5060738;28;20392;-78
2023/12/06 10:20:50;;;;;;;;;;;;;;;8.06;75.03;99188.09;5069890;28;20282;-80
2023/12/06 10:23:15;;;;;;;;;;;;;;;8.06;75.43;99179.38;5069415;28;19923;-78
2023/12/06 10:25:41;;;;;;;;;;;;;;;8.04;76.07;99176.09;5080774;28;19921;-77
2023/12/06 10:28:06;;;;;;;;;;;;;;;7.98;75.95;99182.84;5074901;28;19941;-81
2023/12/06 10:30:31;;;;;;;;;;;;;;;8.01;76.24;99177.25;5079938;28;19959;-83
2023/12/06 10:32:58;;;;;;;;;;;;;;;8.06;74.94;99180.19;5086487;28;20384;-79
2023/12/06 10:35:25;;;;;;;;;;;;;;;8.06;75.18;99177.56;5091557;28;19947;-80
2023/12/06 10:37:50;;;;;;;;;;;;;;;8.07;75.45;99181.84;5070703;28;20405;-80
2023/12/06 10:40:16;;;;;;;;;;;;;;;8.01;76.05;99179.88;5069212;28;19924;-82
2023/12/06 10:42:45;;;;;;;;;;;;;;;7.98;76.59;99180.22;5064380;28;19924;-80
2023/12/06 10:45:11;;;;;;;;;;;;;;;8.00;75.91;99178.25;5074149;28;19963;-82
2023/12/06 10:47:39;;;;;;;;;;;;;;;8.04;75.41;99182.19;5075444;28;19927;-83
2023/12/06 10:50:05;;;;;;;;;;;;;;;8.09;75.47;99179.84;5079398;28;19947;-81
2023/12/06 10:52:31;;;;;;;;;;;;;;;8.12;76.70;99171.63;5073107;28;20026;-81
2023/12/06 10:54:58;;;;;;;;;;;;;;;8.13;76.48;99162.75;5074093;28;20326;-83
2023/12/06 10:57:23;;;;;;;;;;;;;;;8.18;76.07;99170.16;5056491;28;19932;-80
2023/12/06 10:59:49;;;;;;;;;;;;;;;8.14;75.74;99159.13;5075223;28;19921;-82
2023/12/06 11:02:15;;;;;;;;;;;;;;;8.13;76.08;99159.28;5073816;28;19924;-81
2023/12/06 11:04:52;;;;;;;;;;;;;;;8.13;76.18;99160.13;5073606;28;19912;-80
2023/12/06 11:07:20;;;;;;;;;;;;;;;8.15;76.83;99155.50;5070768;28;19927;-82
2023/12/06 11:10:02;;;;;;;;;;;;;;;8.16;76.05;99157.13;5061015;28;19917;-80
2023/12/06 11:12:38;;;;;;;;;;;;;;;8.19;76.38;99156.81;5080327;28;19924;-80
2023/12/06 11:15:26;;;;;;;;;;;;;;;8.21;75.84;99154.03;5066131;28;20063;-80
2023/12/06 11:18:11;;;;;;;;;;;;;;;8.22;76.80;99153.84;5068868;28;19912;-80
2023/12/06 11:20:37;;;;;;;;;;;;;;;8.23;76.37;99152.88;5072845;28;20390;-81
2023/12/06 11:23:03;;;;;;;;;;;;;;;8.26;76.18;99146.44;5071654;28;19974;-80
2023/12/06 11:25:28;;;;;;;;;;;;;;;8.25;75.79;99142.16;5070466;28;20300;-82
2023/12/06 11:27:54;;;;;;;;;;;;;;;8.24;75.86;99143.97;5072170;28;19948;-84
2023/12/06 11:30:19;;;;;;;;;;;;;;;8.14;76.63;99126.75;5072008;28;19934;-82
2023/12/06 11:32:45;;;;;;;;;;;;;;;8.15;75.68;99136.28;5057336;28;19995;-83
2023/12/06 11:35:11;;;;;;;;;;;;;;;8.17;75.80;99145.63;5092320;28;20309;-82
2023/12/06 11:37:37;;;;;;;;;;;;;;;8.23;76.42;99146.78;5093716;28;19916;-82
2023/12/06 11:40:17;;;;;;;;;;;;;;;8.25;75.94;99152.69;5093731;28;19916;-83
2023/12/06 11:42:42;;;;;;;;;;;;;;;8.25;74.98;99150.06;5072431;28;20375;-82
2023/12/06 11:45:26;;;;;;;;;;;;;;;8.26;75.54;99154.31;5090829;28;19916;-84
2023/12/06 11:47:52;;;;;;;;;;;;;;;8.22;75.98;99147.78;5095977;28;19977;-82
2023/12/06 11:50:18;;;;;;;;;;;;;;;8.17;75.59;99145.63;5090150;28;20418;-82
2023/12/06 11:52:48;;;;;;;;;;;;;;;8.14;78.19;99145.16;5069741;28;19931;-83
2023/12/06 11:55:13;;;;;;;;;;;;;;;8.09;76.75;99148.31;5091768;28;20397;-84
2023/12/06 11:57:58;;;;;;;;;;;;;;;8.09;77.44;99139.59;5092437;28;19969;-81
2023/12/06 12:00:23;;;;;;;;;;;;;;;8.08;77.21;99140.59;5060172;28;19917;-82
2023/12/06 12:02:49;;;;;;;;;;;;;;;8.09;77.17;99145.69;5072651;28;19923;-82
2023/12/06 12:05:15;;;;;;;;;;;;;;;8.11;76.34;99141.06;5077519;28;19923;-83
2023/12/06 12:07:41;;;;;;;;;;;;;;;8.12;76.49;99147.13;5069930;28;20062;-82
2023/12/06 12:10:07;;;;;;;;;;;;;;;8.12;76.66;99147.13;5070073;28;19916;-81
2023/12/06 12:12:38;;;;;;;;;;;;;;;8.05;76.92;99148.81;5080587;28;19916;-82
2023/12/06 12:15:07;;;;;;;;;;;;;;;8.07;76.59;99149.47;5082494;28;20443;-82
2023/12/06 12:17:35;;;;;;;;;;;;;;;8.04;76.82;99145.38;5076171;28;21415;-81
2023/12/06 12:20:01;;;;;;;;;;;;;;;8.06;76.46;99146.00;5079813;28;19927;-80
2023/12/06 12:22:27;;;;;;;;;;;;;;;8.07;76.89;99147.66;5067463;28;19916;-80
2023/12/06 12:24:52;;;;;;;;;;;;;;;8.12;76.68;99160.28;5091009;28;20423;-83
2023/12/06 12:27:19;;;;;;;;;;;;;;;8.17;76.46;99147.44;5071590;28;19913;-85
2023/12/06 12:29:45;;;;;;;;;;;;;;;8.16;76.14;99141.38;5072559;28;19917;-84
2023/12/06 12:32:10;;;;;;;;;;;;;;;8.19;76.66;99146.31;5084713;28;19996;-83
2023/12/06 12:34:36;;;;;;;;;;;;;;;8.19;75.70;99142.84;5064770;28;19925;-81
2023/12/06 12:37:02;;;;;;;;;;;;;;;8.16;75.77;99151.88;5060127;28;19966;-82
2023/12/06 12:39:27;;;;;;;;;;;;;;;8.19;76.11;99151.56;5075497;28;19923;-81
2023/12/06 12:41:54;;;;;;;;;;;;;;;8.23;75.98;99152.88;5081288;28;19991;-82
2023/12/06 12:44:19;;;;;;;;;;;;;;;8.26;76.47;99157.78;5071062;28;19916;-82
2023/12/06 12:46:45;;;;;;;;;;;;;;;8.28;76.30;99144.47;5070095;28;19931;-83
2023/12/06 12:49:11;;;;;;;;;;;;;;;8.28;77.17;99147.09;5068307;28;19917;-80
2023/12/06 12:51:37;;;;;;;;;;;;;;;8.26;76.54;99149.88;5072104;28;20381;-80